TVF794E DAOO-LFLL
Flight info
| Callsign | TVF794E |
|---|---|
| Flight time | 1h 45m |
| Altitude | 39000 |
| Route | SID54 LABRO DCT CDP/N0441F380 DCT CHELY DCT LUMAS DCT SOFFY DCT MRM DCT MTL |
| Aircraft | B738/M-SDFGHIJ1RWXY/LB1 |
Departure
| Time | 2026-04-28 19:15 |
|---|---|
| Airport | Oran Es-Sénia (Ahmed Ben Bella) International Airport (DAOO) |
Arrival
| Time | 2026-04-28 21:00 |
|---|---|
| Airport | Lyon Saint-Exupéry Airport (LFLL) |
| Time | Latitude | Longitude | Altitude | Speed | Heading |
|---|---|---|---|---|---|
| 2026-04-28 18:11 | 35.61901 | -0.61183 | 309 ft | 0 kts | 132° |
| 2026-04-28 19:04 | 35.61902 | -0.61184 | 309 ft | 2 kts | 133° |
| 2026-04-28 19:04 | 35.61921 | -0.61205 | 308 ft | 4 kts | 153° |
| 2026-04-28 19:04 | 35.61946 | -0.61215 | 309 ft | 4 kts | 179° |
| 2026-04-28 19:04 | 35.61972 | -0.61210 | 307 ft | 4 kts | 202° |
| 2026-04-28 19:05 | 35.61996 | -0.61194 | 308 ft | 4 kts | 219° |
| 2026-04-28 19:05 | 35.62015 | -0.61171 | 308 ft | 4 kts | 236° |
| 2026-04-28 19:05 | 35.62020 | -0.61160 | 309 ft | 4 kts | 245° |
| 2026-04-28 19:05 | 35.62006 | -0.61184 | 307 ft | 0 kts | 228° |
| 2026-04-28 19:08 | 35.62002 | -0.61198 | 307 ft | 5 kts | 256° |
| 2026-04-28 19:08 | 35.61984 | -0.61273 | 308 ft | 13 kts | 247° |
| 2026-04-28 19:09 | 35.62001 | -0.61375 | 309 ft | 14 kts | 327° |
| 2026-04-28 19:09 | 35.62012 | -0.61480 | 309 ft | 13 kts | 247° |
| 2026-04-28 19:09 | 35.61976 | -0.61584 | 309 ft | 13 kts | 248° |
| 2026-04-28 19:09 | 35.61941 | -0.61688 | 308 ft | 14 kts | 247° |
| 2026-04-28 19:10 | 35.61897 | -0.61817 | 308 ft | 19 kts | 247° |
| 2026-04-28 19:10 | 35.61861 | -0.61920 | 309 ft | 21 kts | 247° |
| 2026-04-28 19:10 | 35.61803 | -0.62092 | 309 ft | 22 kts | 248° |
| 2026-04-28 19:10 | 35.61743 | -0.62269 | 309 ft | 22 kts | 247° |
| 2026-04-28 19:11 | 35.61684 | -0.62442 | 309 ft | 22 kts | 248° |
| 2026-04-28 19:11 | 35.61609 | -0.62664 | 308 ft | 21 kts | 247° |
| 2026-04-28 19:11 | 35.61553 | -0.62826 | 309 ft | 20 kts | 247° |
| 2026-04-28 19:11 | 35.61517 | -0.62932 | 309 ft | 20 kts | 247° |
| 2026-04-28 19:12 | 35.61464 | -0.63083 | 308 ft | 19 kts | 247° |
| 2026-04-28 19:12 | 35.61413 | -0.63232 | 309 ft | 19 kts | 247° |
| 2026-04-28 19:12 | 35.61363 | -0.63378 | 308 ft | 20 kts | 247° |
| 2026-04-28 19:12 | 35.61304 | -0.63549 | 309 ft | 22 kts | 248° |
| 2026-04-28 19:13 | 35.61245 | -0.63721 | 308 ft | 22 kts | 246° |
| 2026-04-28 19:13 | 35.61216 | -0.63893 | 309 ft | 20 kts | 282° |
| 2026-04-28 19:13 | 35.61307 | -0.64013 | 309 ft | 20 kts | 335° |
| 2026-04-28 19:13 | 35.61429 | -0.64012 | 310 ft | 18 kts | 41° |
| 2026-04-28 19:14 | 35.61497 | -0.63840 | 310 ft | 39 kts | 67° |
| 2026-04-28 19:14 | 35.61695 | -0.63259 | 308 ft | 108 kts | 67° |
| 2026-04-28 19:14 | 35.62060 | -0.62202 | 313 ft | 162 kts | 64° |
| 2026-04-28 19:14 | 35.62504 | -0.60885 | 863 ft | 169 kts | 66° |
| 2026-04-28 19:15 | 35.62959 | -0.59538 | 1548 ft | 175 kts | 66° |
| 2026-04-28 19:15 | 35.63473 | -0.58040 | 1856 ft | 205 kts | 66° |
| 2026-04-28 19:15 | 35.64061 | -0.56298 | 2059 ft | 234 kts | 67° |
| 2026-04-28 19:15 | 35.64490 | -0.55032 | 2225 ft | 250 kts | 68° |
| 2026-04-28 19:16 | 35.65417 | -0.52272 | 3012 ft | 264 kts | 69° |
| 2026-04-28 19:16 | 35.66114 | -0.50191 | 3945 ft | 262 kts | 69° |
| 2026-04-28 19:16 | 35.66931 | -0.48252 | 4908 ft | 260 kts | 59° |
| 2026-04-28 19:16 | 35.68189 | -0.46595 | 5542 ft | 272 kts | 41° |
| 2026-04-28 19:17 | 35.69689 | -0.45129 | 6209 ft | 279 kts | 39° |
| 2026-04-28 19:17 | 35.71234 | -0.43652 | 6935 ft | 282 kts | 39° |
| 2026-04-28 19:17 | 35.72793 | -0.42162 | 7661 ft | 286 kts | 39° |
| 2026-04-28 19:17 | 35.74373 | -0.40646 | 8390 ft | 290 kts | 39° |
| 2026-04-28 19:18 | 35.75972 | -0.39105 | 9100 ft | 295 kts | 39° |
| 2026-04-28 19:18 | 35.77607 | -0.37523 | 9760 ft | 302 kts | 39° |
| 2026-04-28 19:18 | 35.79264 | -0.35915 | 10439 ft | 305 kts | 39° |
| 2026-04-28 19:18 | 35.80912 | -0.34313 | 11132 ft | 308 kts | 39° |
| 2026-04-28 19:19 | 35.82599 | -0.32670 | 11848 ft | 311 kts | 39° |
| 2026-04-28 19:19 | 35.84306 | -0.31004 | 12540 ft | 315 kts | 38° |
| 2026-04-28 19:19 | 35.86034 | -0.29317 | 13280 ft | 319 kts | 38° |
| 2026-04-28 19:19 | 35.87782 | -0.27609 | 13992 ft | 322 kts | 38° |
| 2026-04-28 19:20 | 35.89544 | -0.25885 | 14716 ft | 324 kts | 38° |
| 2026-04-28 19:20 | 35.91315 | -0.24151 | 15460 ft | 326 kts | 38° |
| 2026-04-28 19:20 | 35.93098 | -0.22404 | 16176 ft | 330 kts | 38° |
| 2026-04-28 19:20 | 35.94946 | -0.20593 | 16423 ft | 351 kts | 38° |
| 2026-04-28 19:21 | 35.96912 | -0.18664 | 16595 ft | 372 kts | 38° |
| 2026-04-28 19:21 | 35.98958 | -0.16657 | 16855 ft | 388 kts | 38° |
| 2026-04-28 19:21 | 36.01091 | -0.14561 | 17437 ft | 394 kts | 38° |
| 2026-04-28 19:21 | 36.03239 | -0.12448 | 18184 ft | 396 kts | 38° |
| 2026-04-28 19:22 | 36.05398 | -0.10323 | 18817 ft | 398 kts | 38° |
| 2026-04-28 19:22 | 36.06835 | -0.08908 | 19208 ft | 400 kts | 38° |
| 2026-04-28 19:22 | 36.09766 | -0.06020 | 19974 ft | 405 kts | 38° |
| 2026-04-28 19:22 | 36.11981 | -0.03835 | 20549 ft | 409 kts | 38° |
| 2026-04-28 19:23 | 36.14213 | -0.01632 | 21120 ft | 412 kts | 38° |
| 2026-04-28 19:23 | 36.16463 | 0.00591 | 21653 ft | 416 kts | 39° |
| 2026-04-28 19:23 | 36.18739 | 0.02841 | 22152 ft | 421 kts | 39° |
| 2026-04-28 19:23 | 36.21038 | 0.05114 | 22683 ft | 425 kts | 39° |
| 2026-04-28 19:24 | 36.23322 | 0.07376 | 23227 ft | 428 kts | 39° |
| 2026-04-28 19:24 | 36.25655 | 0.09687 | 23707 ft | 431 kts | 39° |
| 2026-04-28 19:24 | 36.27996 | 0.12008 | 24216 ft | 432 kts | 39° |
| 2026-04-28 19:24 | 36.30348 | 0.14342 | 24666 ft | 434 kts | 39° |
| 2026-04-28 19:25 | 36.32715 | 0.16693 | 25080 ft | 438 kts | 39° |
| 2026-04-28 19:25 | 36.35098 | 0.19062 | 25495 ft | 441 kts | 39° |
| 2026-04-28 19:25 | 36.37497 | 0.21448 | 25915 ft | 443 kts | 39° |
| 2026-04-28 19:25 | 36.39910 | 0.23850 | 26331 ft | 446 kts | 39° |
| 2026-04-28 19:26 | 36.42336 | 0.26267 | 26735 ft | 449 kts | 39° |
| 2026-04-28 19:26 | 36.44776 | 0.28700 | 27137 ft | 451 kts | 39° |
| 2026-04-28 19:26 | 36.47196 | 0.31115 | 27516 ft | 454 kts | 39° |
| 2026-04-28 19:26 | 36.49664 | 0.33580 | 27896 ft | 456 kts | 39° |
| 2026-04-28 19:27 | 36.52138 | 0.36053 | 28398 ft | 455 kts | 39° |
| 2026-04-28 19:27 | 36.54603 | 0.38519 | 28855 ft | 456 kts | 39° |
| 2026-04-28 19:27 | 36.59645 | 0.43570 | 29080 ft | 473 kts | 39° |
| 2026-04-28 19:28 | 36.62211 | 0.46145 | 29438 ft | 474 kts | 39° |
| 2026-04-28 19:28 | 36.64780 | 0.48723 | 29852 ft | 475 kts | 39° |
| 2026-04-28 19:28 | 36.67322 | 0.51278 | 30145 ft | 477 kts | 39° |
| 2026-04-28 19:28 | 36.69911 | 0.53882 | 30413 ft | 479 kts | 39° |
| 2026-04-28 19:29 | 36.72508 | 0.56496 | 30684 ft | 481 kts | 39° |
| 2026-04-28 19:29 | 36.74233 | 0.58233 | 30873 ft | 482 kts | 39° |
| 2026-04-28 19:29 | 36.77708 | 0.61737 | 31474 ft | 477 kts | 39° |
| 2026-04-28 19:29 | 36.80282 | 0.64335 | 31923 ft | 475 kts | 40° |
| 2026-04-28 19:30 | 36.82847 | 0.66926 | 32264 ft | 475 kts | 39° |
| 2026-04-28 19:30 | 36.85415 | 0.69523 | 32556 ft | 475 kts | 39° |
| 2026-04-28 19:30 | 36.87984 | 0.72123 | 32891 ft | 475 kts | 39° |
| 2026-04-28 19:30 | 36.90511 | 0.74683 | 33258 ft | 473 kts | 39° |
| 2026-04-28 19:31 | 36.93067 | 0.77274 | 33586 ft | 473 kts | 40° |
| 2026-04-28 19:31 | 36.95638 | 0.79884 | 33620 ft | 480 kts | 40° |
| 2026-04-28 19:31 | 36.98238 | 0.82526 | 33773 ft | 483 kts | 40° |
| 2026-04-28 19:31 | 37.00838 | 0.85169 | 34171 ft | 479 kts | 39° |
| 2026-04-28 19:32 | 37.03406 | 0.87781 | 34618 ft | 474 kts | 39° |
| 2026-04-28 19:32 | 37.05961 | 0.90383 | 34878 ft | 474 kts | 39° |
| 2026-04-28 19:32 | 37.08524 | 0.92995 | 35024 ft | 477 kts | 39° |
| 2026-04-28 19:32 | 37.11066 | 0.95588 | 35210 ft | 478 kts | 39° |
| 2026-04-28 19:33 | 37.13638 | 0.98216 | 35485 ft | 477 kts | 39° |
| 2026-04-28 19:33 | 37.16206 | 1.00841 | 35763 ft | 476 kts | 39° |
| 2026-04-28 19:33 | 37.18770 | 1.03465 | 35992 ft | 476 kts | 39° |
| 2026-04-28 19:33 | 37.21336 | 1.06092 | 36193 ft | 477 kts | 39° |
| 2026-04-28 19:34 | 37.23902 | 1.08722 | 36465 ft | 475 kts | 39° |
| 2026-04-28 19:34 | 37.26440 | 1.11326 | 36997 ft | 468 kts | 39° |
| 2026-04-28 19:34 | 37.28976 | 1.13865 | 37290 ft | 466 kts | 37° |
| 2026-04-28 19:34 | 37.31583 | 1.16313 | 37346 ft | 470 kts | 36° |
| 2026-04-28 19:35 | 37.36887 | 1.21105 | 37544 ft | 474 kts | 35° |
| 2026-04-28 19:35 | 37.39569 | 1.23517 | 37799 ft | 473 kts | 35° |
| 2026-04-28 19:35 | 37.42244 | 1.25938 | 37874 ft | 476 kts | 35° |
| 2026-04-28 19:36 | 37.47604 | 1.30833 | 37873 ft | 475 kts | 35° |
| 2026-04-28 19:36 | 37.52892 | 1.35699 | 37869 ft | 467 kts | 36° |
| 2026-04-28 19:37 | 37.57224 | 1.39697 | 37867 ft | 462 kts | 36° |
| 2026-04-28 19:37 | 37.63257 | 1.45272 | 37896 ft | 466 kts | 36° |
| 2026-04-28 19:38 | 37.68519 | 1.50143 | 37891 ft | 472 kts | 36° |
| 2026-04-28 19:38 | 37.73828 | 1.55065 | 37878 ft | 475 kts | 35° |
| 2026-04-28 19:39 | 37.79161 | 1.60019 | 37887 ft | 476 kts | 36° |
| 2026-04-28 19:39 | 37.84465 | 1.64956 | 37885 ft | 477 kts | 36° |
| 2026-04-28 19:40 | 37.89800 | 1.69930 | 37891 ft | 476 kts | 36° |
| 2026-04-28 19:40 | 37.95116 | 1.74896 | 37901 ft | 474 kts | 36° |
| 2026-04-28 19:41 | 38.00406 | 1.79846 | 37889 ft | 472 kts | 36° |
| 2026-04-28 19:41 | 38.05667 | 1.84779 | 37886 ft | 469 kts | 36° |
| 2026-04-28 19:42 | 38.10865 | 1.89660 | 37890 ft | 467 kts | 36° |
| 2026-04-28 19:42 | 38.15191 | 1.93731 | 37884 ft | 465 kts | 35° |
| 2026-04-28 19:43 | 38.21253 | 1.99444 | 37907 ft | 463 kts | 36° |
| 2026-04-28 19:43 | 38.26428 | 2.04331 | 37901 ft | 463 kts | 36° |
| 2026-04-28 19:44 | 38.31563 | 2.09188 | 37907 ft | 463 kts | 36° |
| 2026-04-28 19:44 | 38.36732 | 2.14087 | 37909 ft | 463 kts | 36° |
| 2026-04-28 19:45 | 38.41908 | 2.19002 | 37908 ft | 464 kts | 36° |
| 2026-04-28 19:45 | 38.47095 | 2.23935 | 37914 ft | 466 kts | 36° |
| 2026-04-28 19:46 | 38.52294 | 2.28890 | 37911 ft | 467 kts | 36° |
| 2026-04-28 19:46 | 38.57466 | 2.33827 | 37911 ft | 468 kts | 36° |
| 2026-04-28 19:47 | 38.62681 | 2.38816 | 37911 ft | 469 kts | 36° |
| 2026-04-28 19:47 | 38.67908 | 2.43826 | 37914 ft | 470 kts | 36° |
| 2026-04-28 19:48 | 38.73143 | 2.48853 | 37921 ft | 471 kts | 36° |
| 2026-04-28 19:48 | 38.78348 | 2.53859 | 37920 ft | 471 kts | 36° |
| 2026-04-28 19:49 | 38.83586 | 2.58907 | 37923 ft | 471 kts | 36° |
| 2026-04-28 19:49 | 38.88820 | 2.63960 | 37938 ft | 470 kts | 36° |
| 2026-04-28 19:50 | 38.96645 | 2.71534 | 37925 ft | 468 kts | 36° |
| 2026-04-28 19:51 | 39.01805 | 2.76540 | 37932 ft | 467 kts | 36° |
| 2026-04-28 19:51 | 39.06982 | 2.81572 | 37933 ft | 466 kts | 36° |
| 2026-04-28 19:52 | 39.12144 | 2.86598 | 37935 ft | 465 kts | 36° |
| 2026-04-28 19:52 | 39.17291 | 2.91619 | 37939 ft | 464 kts | 36° |
| 2026-04-28 19:53 | 39.22393 | 2.96606 | 37947 ft | 463 kts | 36° |
| 2026-04-28 19:53 | 39.27518 | 3.01625 | 37950 ft | 462 kts | 36° |
| 2026-04-28 19:54 | 39.32636 | 3.06646 | 37963 ft | 462 kts | 37° |
| 2026-04-28 19:54 | 39.37749 | 3.11672 | 37953 ft | 462 kts | 37° |
| 2026-04-28 19:55 | 39.42855 | 3.16701 | 37956 ft | 461 kts | 37° |
| 2026-04-28 19:55 | 39.47923 | 3.21701 | 37960 ft | 461 kts | 37° |
| 2026-04-28 19:56 | 39.53022 | 3.26742 | 37965 ft | 461 kts | 37° |
| 2026-04-28 19:56 | 39.58113 | 3.31784 | 37970 ft | 461 kts | 37° |
| 2026-04-28 19:57 | 39.63200 | 3.36834 | 37969 ft | 460 kts | 37° |
| 2026-04-28 19:57 | 39.68243 | 3.41847 | 37972 ft | 460 kts | 37° |
| 2026-04-28 19:58 | 39.73527 | 3.46488 | 37983 ft | 458 kts | 30° |
| 2026-04-28 19:58 | 39.79054 | 3.50602 | 37981 ft | 457 kts | 28° |
| 2026-04-28 19:59 | 39.84582 | 3.54693 | 37972 ft | 457 kts | 29° |
| 2026-04-28 19:59 | 39.90043 | 3.58818 | 37977 ft | 456 kts | 29° |
| 2026-04-28 20:00 | 39.95514 | 3.62999 | 37976 ft | 456 kts | 30° |
| 2026-04-28 20:00 | 40.00975 | 3.67191 | 37981 ft | 455 kts | 30° |
| 2026-04-28 20:01 | 40.06432 | 3.71386 | 37982 ft | 455 kts | 30° |
| 2026-04-28 20:01 | 40.11886 | 3.75585 | 37977 ft | 455 kts | 30° |
| 2026-04-28 20:02 | 40.17302 | 3.79762 | 37981 ft | 455 kts | 30° |
| 2026-04-28 20:02 | 40.22756 | 3.83976 | 37974 ft | 455 kts | 30° |
| 2026-04-28 20:03 | 40.28214 | 3.88200 | 37986 ft | 456 kts | 30° |
| 2026-04-28 20:03 | 40.33675 | 3.92435 | 37987 ft | 457 kts | 30° |
| 2026-04-28 20:04 | 40.39142 | 3.96683 | 37990 ft | 457 kts | 30° |
| 2026-04-28 20:04 | 40.44582 | 4.00918 | 37987 ft | 458 kts | 30° |
| 2026-04-28 20:05 | 40.50069 | 4.05198 | 37996 ft | 459 kts | 30° |
| 2026-04-28 20:05 | 40.55566 | 4.09494 | 37992 ft | 460 kts | 30° |
| 2026-04-28 20:06 | 40.61070 | 4.13804 | 38004 ft | 461 kts | 30° |
| 2026-04-28 20:06 | 40.66545 | 4.18099 | 38000 ft | 461 kts | 30° |
| 2026-04-28 20:07 | 40.72059 | 4.22433 | 37997 ft | 462 kts | 30° |
| 2026-04-28 20:07 | 40.77574 | 4.26777 | 37996 ft | 462 kts | 30° |
| 2026-04-28 20:08 | 40.83086 | 4.31127 | 38000 ft | 462 kts | 30° |
| 2026-04-28 20:08 | 40.88595 | 4.35483 | 38001 ft | 461 kts | 30° |
| 2026-04-28 20:09 | 40.94062 | 4.39814 | 38005 ft | 461 kts | 30° |
| 2026-04-28 20:09 | 40.99561 | 4.44181 | 38005 ft | 461 kts | 30° |
| 2026-04-28 20:10 | 41.05059 | 4.48540 | 38004 ft | 460 kts | 28° |
| 2026-04-28 20:10 | 41.10995 | 4.51527 | 38000 ft | 456 kts | 9° |
| 2026-04-28 20:11 | 41.17192 | 4.52994 | 38005 ft | 455 kts | 8° |
| 2026-04-28 20:11 | 41.23439 | 4.54425 | 38005 ft | 456 kts | 8° |
| 2026-04-28 20:12 | 41.29681 | 4.55920 | 38012 ft | 456 kts | 8° |
| 2026-04-28 20:12 | 41.35924 | 4.57451 | 38000 ft | 456 kts | 8° |
| 2026-04-28 20:13 | 41.42168 | 4.58991 | 38008 ft | 456 kts | 8° |
| 2026-04-28 20:13 | 41.48368 | 4.60522 | 38016 ft | 456 kts | 8° |
| 2026-04-28 20:14 | 41.54615 | 4.62065 | 38011 ft | 457 kts | 8° |
| 2026-04-28 20:14 | 41.60864 | 4.63612 | 38011 ft | 457 kts | 8° |
| 2026-04-28 20:15 | 41.67109 | 4.65161 | 38012 ft | 457 kts | 8° |
| 2026-04-28 20:15 | 41.73313 | 4.66710 | 38016 ft | 457 kts | 9° |
| 2026-04-28 20:16 | 41.79463 | 4.68892 | 38019 ft | 458 kts | 15° |
| 2026-04-28 20:16 | 41.85555 | 4.71393 | 38012 ft | 458 kts | 15° |
| 2026-04-28 20:17 | 41.91698 | 4.73524 | 38012 ft | 454 kts | 4° |
| 2026-04-28 20:17 | 41.97940 | 4.73916 | 38015 ft | 451 kts | 357° |
| 2026-04-28 20:18 | 42.04215 | 4.73808 | 38019 ft | 451 kts | 356° |
| 2026-04-28 20:18 | 42.10494 | 4.73761 | 38029 ft | 451 kts | 358° |
| 2026-04-28 20:19 | 42.16775 | 4.73854 | 38016 ft | 452 kts | 358° |
| 2026-04-28 20:19 | 42.23060 | 4.73981 | 38021 ft | 452 kts | 358° |
| 2026-04-28 20:20 | 42.29303 | 4.74096 | 38019 ft | 452 kts | 358° |
| 2026-04-28 20:20 | 42.35593 | 4.74204 | 38024 ft | 452 kts | 358° |
| 2026-04-28 20:21 | 42.41888 | 4.74308 | 38019 ft | 453 kts | 358° |
| 2026-04-28 20:21 | 42.48189 | 4.74413 | 38023 ft | 453 kts | 358° |
| 2026-04-28 20:22 | 42.54491 | 4.74518 | 38035 ft | 453 kts | 358° |
| 2026-04-28 20:22 | 42.60759 | 4.74623 | 38023 ft | 454 kts | 358° |
| 2026-04-28 20:23 | 42.67074 | 4.74729 | 38022 ft | 454 kts | 358° |
| 2026-04-28 20:23 | 42.73388 | 4.74835 | 38023 ft | 454 kts | 358° |
| 2026-04-28 20:24 | 42.79702 | 4.74942 | 38033 ft | 454 kts | 358° |
| 2026-04-28 20:24 | 42.85975 | 4.75048 | 38026 ft | 454 kts | 358° |
| 2026-04-28 20:25 | 42.92289 | 4.75155 | 38034 ft | 454 kts | 358° |
| 2026-04-28 20:25 | 42.98601 | 4.75262 | 38033 ft | 454 kts | 357° |
| 2026-04-28 20:26 | 43.04912 | 4.75369 | 38029 ft | 454 kts | 357° |
| 2026-04-28 20:26 | 43.11223 | 4.75476 | 38024 ft | 453 kts | 357° |
| 2026-04-28 20:27 | 43.17492 | 4.75583 | 38030 ft | 453 kts | 357° |
| 2026-04-28 20:27 | 43.23802 | 4.75690 | 38026 ft | 453 kts | 357° |
| 2026-04-28 20:28 | 43.30110 | 4.75798 | 38020 ft | 453 kts | 357° |
| 2026-04-28 20:28 | 43.36415 | 4.75906 | 38028 ft | 453 kts | 357° |
| 2026-04-28 20:29 | 43.42680 | 4.76013 | 38024 ft | 453 kts | 357° |
| 2026-04-28 20:29 | 43.48988 | 4.76121 | 38023 ft | 453 kts | 357° |
| 2026-04-28 20:30 | 43.55298 | 4.76230 | 38031 ft | 453 kts | 356° |
| 2026-04-28 20:30 | 43.61612 | 4.76338 | 37926 ft | 455 kts | 356° |
| 2026-04-28 20:30 | 43.64795 | 4.76391 | 37430 ft | 459 kts | 357° |
| 2026-04-28 20:31 | 43.67979 | 4.76447 | 36884 ft | 456 kts | 357° |
| 2026-04-28 20:31 | 43.71100 | 4.76502 | 36385 ft | 454 kts | 357° |
| 2026-04-28 20:31 | 43.74242 | 4.76559 | 36011 ft | 449 kts | 357° |
| 2026-04-28 20:31 | 43.77357 | 4.76614 | 35579 ft | 445 kts | 358° |
| 2026-04-28 20:32 | 43.80443 | 4.76669 | 35169 ft | 442 kts | 358° |
| 2026-04-28 20:32 | 43.83508 | 4.76777 | 34707 ft | 440 kts | 360° |
| 2026-04-28 20:32 | 43.86561 | 4.77007 | 34302 ft | 438 kts | 1° |
| 2026-04-28 20:32 | 43.89591 | 4.77287 | 33869 ft | 435 kts | 1° |
| 2026-04-28 20:33 | 43.92603 | 4.77576 | 33411 ft | 432 kts | 1° |
| 2026-04-28 20:33 | 43.95594 | 4.77855 | 32989 ft | 429 kts | 1° |
| 2026-04-28 20:33 | 43.98523 | 4.78119 | 32579 ft | 426 kts | 1° |
| 2026-04-28 20:33 | 44.01472 | 4.78374 | 32182 ft | 423 kts | 1° |
| 2026-04-28 20:34 | 44.04398 | 4.78620 | 31787 ft | 420 kts | 0° |
| 2026-04-28 20:34 | 44.07305 | 4.78862 | 31402 ft | 417 kts | 0° |
| 2026-04-28 20:34 | 44.10195 | 4.79100 | 31015 ft | 415 kts | 0° |
| 2026-04-28 20:34 | 44.13067 | 4.79335 | 30641 ft | 412 kts | 0° |
| 2026-04-28 20:35 | 44.15922 | 4.79570 | 30260 ft | 410 kts | 0° |
| 2026-04-28 20:35 | 44.18766 | 4.79804 | 29835 ft | 408 kts | 0° |
| 2026-04-28 20:35 | 44.21594 | 4.80037 | 29403 ft | 405 kts | 0° |
| 2026-04-28 20:35 | 44.24360 | 4.80266 | 28991 ft | 402 kts | 0° |
| 2026-04-28 20:36 | 44.27144 | 4.80496 | 28598 ft | 399 kts | 0° |
| 2026-04-28 20:36 | 44.29901 | 4.80725 | 28185 ft | 396 kts | 0° |
| 2026-04-28 20:36 | 44.32641 | 4.80952 | 27797 ft | 393 kts | 0° |
| 2026-04-28 20:36 | 44.35360 | 4.81177 | 27407 ft | 390 kts | 0° |
| 2026-04-28 20:37 | 44.38063 | 4.81402 | 27027 ft | 388 kts | 0° |
| 2026-04-28 20:37 | 44.40748 | 4.81625 | 26639 ft | 385 kts | 0° |
| 2026-04-28 20:37 | 44.43417 | 4.81846 | 26265 ft | 383 kts | 0° |
| 2026-04-28 20:37 | 44.46035 | 4.82064 | 25899 ft | 381 kts | 0° |
| 2026-04-28 20:38 | 44.48678 | 4.82284 | 25525 ft | 379 kts | 0° |
| 2026-04-28 20:38 | 44.51305 | 4.82503 | 25145 ft | 378 kts | 0° |
| 2026-04-28 20:38 | 44.53924 | 4.82720 | 24785 ft | 376 kts | 0° |
| 2026-04-28 20:38 | 44.56526 | 4.82938 | 24411 ft | 374 kts | 0° |
| 2026-04-28 20:39 | 44.59118 | 4.83155 | 24041 ft | 373 kts | 0° |
| 2026-04-28 20:39 | 44.61702 | 4.83371 | 23665 ft | 371 kts | 0° |
| 2026-04-28 20:39 | 44.64275 | 4.83587 | 23243 ft | 369 kts | 1° |
| 2026-04-28 20:39 | 44.66833 | 4.83802 | 22838 ft | 367 kts | 1° |
| 2026-04-28 20:40 | 44.69342 | 4.84012 | 22455 ft | 365 kts | 1° |
| 2026-04-28 20:40 | 44.71870 | 4.84225 | 22082 ft | 363 kts | 1° |
| 2026-04-28 20:40 | 44.74381 | 4.84436 | 21710 ft | 360 kts | 1° |
| 2026-04-28 20:40 | 44.76873 | 4.84646 | 21353 ft | 358 kts | 1° |
| 2026-04-28 20:41 | 44.79349 | 4.84855 | 20997 ft | 355 kts | 1° |
| 2026-04-28 20:41 | 44.81807 | 4.85062 | 20641 ft | 353 kts | 1° |
| 2026-04-28 20:41 | 44.84252 | 4.85268 | 20287 ft | 351 kts | 1° |
| 2026-04-28 20:41 | 44.86680 | 4.85473 | 19935 ft | 349 kts | 1° |
| 2026-04-28 20:42 | 44.89097 | 4.85677 | 19585 ft | 347 kts | 1° |
| 2026-04-28 20:42 | 44.91469 | 4.85877 | 19246 ft | 345 kts | 1° |
| 2026-04-28 20:42 | 44.93864 | 4.86080 | 18897 ft | 344 kts | 1° |
| 2026-04-28 20:42 | 44.96246 | 4.86282 | 18551 ft | 342 kts | 1° |
| 2026-04-28 20:43 | 44.98620 | 4.86483 | 18188 ft | 341 kts | 1° |
| 2026-04-28 20:43 | 45.00984 | 4.86684 | 17798 ft | 340 kts | 1° |
| 2026-04-28 20:43 | 45.03336 | 4.86884 | 17433 ft | 337 kts | 1° |
| 2026-04-28 20:43 | 45.05672 | 4.87082 | 17081 ft | 335 kts | 1° |
| 2026-04-28 20:44 | 45.07991 | 4.87279 | 16740 ft | 333 kts | 1° |
| 2026-04-28 20:44 | 45.10292 | 4.87476 | 16411 ft | 330 kts | 1° |
| 2026-04-28 20:44 | 45.12549 | 4.87669 | 16075 ft | 328 kts | 1° |
| 2026-04-28 20:44 | 45.14821 | 4.87862 | 15744 ft | 326 kts | 1° |
| 2026-04-28 20:45 | 45.17076 | 4.88054 | 15416 ft | 324 kts | 1° |
| 2026-04-28 20:45 | 45.19322 | 4.88246 | 15091 ft | 322 kts | 1° |
| 2026-04-28 20:45 | 45.21552 | 4.88437 | 14766 ft | 320 kts | 1° |
| 2026-04-28 20:45 | 45.23773 | 4.88626 | 14439 ft | 319 kts | 1° |
| 2026-04-28 20:46 | 45.25983 | 4.88816 | 14118 ft | 318 kts | 1° |
| 2026-04-28 20:46 | 45.28186 | 4.89010 | 13796 ft | 316 kts | 3° |
| 2026-04-28 20:46 | 45.30358 | 4.89503 | 13441 ft | 316 kts | 11° |
| 2026-04-28 20:46 | 45.32458 | 4.90249 | 13110 ft | 314 kts | 13° |
| 2026-04-28 20:47 | 45.34567 | 4.91050 | 12776 ft | 313 kts | 13° |
| 2026-04-28 20:47 | 45.36663 | 4.91838 | 12456 ft | 311 kts | 13° |
| 2026-04-28 20:47 | 45.38752 | 4.92605 | 12131 ft | 310 kts | 13° |
| 2026-04-28 20:47 | 45.40836 | 4.93354 | 11808 ft | 308 kts | 13° |
| 2026-04-28 20:48 | 45.42912 | 4.94091 | 11483 ft | 307 kts | 12° |
| 2026-04-28 20:48 | 45.44979 | 4.94819 | 11170 ft | 305 kts | 12° |
| 2026-04-28 20:48 | 45.47037 | 4.95541 | 10856 ft | 304 kts | 12° |
| 2026-04-28 20:48 | 45.49090 | 4.96260 | 10550 ft | 304 kts | 12° |
| 2026-04-28 20:49 | 45.51113 | 4.96969 | 10291 ft | 302 kts | 12° |
| 2026-04-28 20:49 | 45.53128 | 4.97676 | 10167 ft | 295 kts | 12° |
| 2026-04-28 20:49 | 45.55108 | 4.98301 | 9993 ft | 289 kts | 4° |
| 2026-04-28 20:49 | 45.57107 | 4.98201 | 9699 ft | 286 kts | 352° |
| 2026-04-28 20:50 | 45.59082 | 4.97878 | 9403 ft | 286 kts | 351° |
| 2026-04-28 20:50 | 45.61055 | 4.97551 | 9112 ft | 285 kts | 352° |
| 2026-04-28 20:50 | 45.63024 | 4.97238 | 8819 ft | 284 kts | 352° |
| 2026-04-28 20:50 | 45.64959 | 4.96943 | 8541 ft | 282 kts | 352° |
| 2026-04-28 20:51 | 45.66905 | 4.96657 | 8266 ft | 280 kts | 353° |
| 2026-04-28 20:51 | 45.68839 | 4.96376 | 7990 ft | 279 kts | 353° |
| 2026-04-28 20:51 | 45.70762 | 4.96089 | 7725 ft | 277 kts | 352° |
| 2026-04-28 20:51 | 45.72028 | 4.95895 | 7532 ft | 276 kts | 352° |
| 2026-04-28 20:52 | 45.74586 | 4.95537 | 7138 ft | 275 kts | 353° |
| 2026-04-28 20:52 | 45.76485 | 4.95277 | 6877 ft | 273 kts | 353° |
| 2026-04-28 20:52 | 45.78375 | 4.95018 | 6591 ft | 273 kts | 353° |
| 2026-04-28 20:52 | 45.80269 | 4.94759 | 6278 ft | 273 kts | 353° |
| 2026-04-28 20:53 | 45.84008 | 4.94200 | 5710 ft | 271 kts | 353° |
| 2026-04-28 20:53 | 45.85875 | 4.93975 | 5529 ft | 265 kts | 1° |
| 2026-04-28 20:53 | 45.87644 | 4.94524 | 5394 ft | 257 kts | 20° |
| 2026-04-28 20:54 | 45.89303 | 4.95384 | 5249 ft | 251 kts | 22° |
| 2026-04-28 20:54 | 45.90896 | 4.96327 | 5087 ft | 244 kts | 33° |
| 2026-04-28 20:54 | 45.92040 | 4.97996 | 4980 ft | 231 kts | 64° |
| 2026-04-28 20:54 | 45.92525 | 5.00155 | 4826 ft | 229 kts | 84° |
| 2026-04-28 20:55 | 45.92641 | 5.02392 | 4680 ft | 224 kts | 89° |
| 2026-04-28 20:55 | 45.92685 | 5.04612 | 4498 ft | 219 kts | 101° |
| 2026-04-28 20:55 | 45.92043 | 5.06488 | 4293 ft | 210 kts | 140° |
| 2026-04-28 20:55 | 45.90754 | 5.07248 | 4192 ft | 199 kts | 175° |
| 2026-04-28 20:56 | 45.89390 | 5.07287 | 3989 ft | 192 kts | 176° |
| 2026-04-28 20:56 | 45.88055 | 5.07383 | 3690 ft | 191 kts | 174° |
| 2026-04-28 20:56 | 45.86747 | 5.07542 | 3422 ft | 188 kts | 172° |
| 2026-04-28 20:56 | 45.85451 | 5.07715 | 3160 ft | 185 kts | 173° |
| 2026-04-28 20:57 | 45.84208 | 5.07857 | 2931 ft | 178 kts | 173° |
| 2026-04-28 20:57 | 45.82987 | 5.08015 | 2653 ft | 172 kts | 173° |
| 2026-04-28 20:57 | 45.81832 | 5.08161 | 2431 ft | 161 kts | 173° |
| 2026-04-28 20:57 | 45.80736 | 5.08287 | 2251 ft | 151 kts | 173° |
| 2026-04-28 20:58 | 45.79729 | 5.08417 | 2042 ft | 142 kts | 172° |
| 2026-04-28 20:58 | 45.78755 | 5.08542 | 1855 ft | 139 kts | 173° |
| 2026-04-28 20:58 | 45.77773 | 5.08663 | 1692 ft | 144 kts | 173° |
| 2026-04-28 20:58 | 45.76771 | 5.08793 | 1487 ft | 146 kts | 173° |
| 2026-04-28 20:59 | 45.75753 | 5.08908 | 1271 ft | 147 kts | 173° |
| 2026-04-28 20:59 | 45.74759 | 5.09033 | 1061 ft | 144 kts | 173° |
| 2026-04-28 20:59 | 45.73774 | 5.09156 | 885 ft | 141 kts | 173° |
| 2026-04-28 20:59 | 45.72827 | 5.09271 | 803 ft | 123 kts | 175° |
| 2026-04-28 21:00 | 45.72190 | 5.09349 | 813 ft | 61 kts | 175° |
| 2026-04-28 21:00 | 45.71904 | 5.09372 | 819 ft | 35 kts | 185° |
| 2026-04-28 21:00 | 45.71716 | 5.09301 | 819 ft | 22 kts | 203° |
| 2026-04-28 21:00 | 45.71639 | 5.09208 | 811 ft | 14 kts | 259° |
| 2026-04-28 21:01 | 45.71629 | 5.09053 | 813 ft | 16 kts | 264° |
| 2026-04-28 21:01 | 45.71619 | 5.08903 | 813 ft | 15 kts | 264° |
| 2026-04-28 21:01 | 45.71608 | 5.08747 | 808 ft | 18 kts | 264° |
| 2026-04-28 21:01 | 45.71598 | 5.08599 | 804 ft | 13 kts | 265° |
| 2026-04-28 21:02 | 45.71550 | 5.08512 | 802 ft | 12 kts | 185° |
| 2026-04-28 21:02 | 45.71469 | 5.08521 | 805 ft | 10 kts | 176° |
| 2026-04-28 21:02 | 45.71422 | 5.08488 | 806 ft | 6 kts | 245° |
| 2026-04-28 21:02 | 45.71421 | 5.08418 | 804 ft | 8 kts | 311° |
| 2026-04-28 21:03 | 45.71460 | 5.08408 | 802 ft | 3 kts | 355° |
| 2026-04-28 21:03 | 45.71483 | 5.08405 | 801 ft | 3 kts | 355° |
| 2026-04-28 21:03 | 45.71491 | 5.08404 | 800 ft | 0 kts | 355° |